Houston, Texas
Traffic Map
Current Weather Conditions
Houston, Texas
Clear
Clear
32°
Feels Like: 34°
Wind Chill: 32° Ceiling: Unl
Heat Index: 34° Visibility: 10mi
Dew Point: 20° Wind: 6mph
Humidity: 49% Direction: 260° (W)
Pressure: 30.06in Gusts: 0mph
Raw Report DataKMCJ 291455Z AUTO 26005KT 10SM CLR 32/20 A3006 RMK AO1
Traffic Incident Summary
Active as of:
Severity:
Category:
InformationThere was an issue retrieving the traffic information for this location. Please try a different location or try again shortly.
Advertisements
Track Severe Weather on mobile